createdAt,value
2023-02-01T00:03:21.803Z,78.81
2023-02-01T00:08:24.179Z,79.34
2023-02-01T00:13:26.300Z,79.66
2023-02-01T00:18:30.198Z,79.34
2023-02-01T00:23:35.147Z,78.54
2023-02-01T00:28:37.065Z,78.36
2023-02-01T00:33:40.573Z,78.01
2023-02-01T00:38:42.806Z,78.31
2023-02-01T00:43:45.768Z,78.89
2023-02-01T00:48:49.339Z,81.45
2023-02-01T00:53:52.001Z,82.82
2023-02-01T00:58:54.354Z,82.77
2023-02-01T01:03:59.402Z,82.00
2023-02-01T01:09:04.950Z,81.57
2023-02-01T01:14:09.175Z,80.22
2023-02-01T01:19:13.833Z,79.19
2023-02-01T01:24:16.329Z,78.04
2023-02-01T01:29:18.454Z,78.64
2023-02-01T01:34:22.062Z,78.56
2023-02-01T01:39:24.049Z,78.78
2023-02-01T01:44:58.785Z,78.71
2023-02-01T01:50:03.066Z,79.19
2023-02-01T01:55:09.259Z,79.75
2023-02-01T02:00:14.187Z,80.23
2023-02-01T02:05:19.607Z,79.67
2023-02-01T02:10:22.056Z,80.31
2023-02-01T02:15:25.239Z,80.40
2023-02-01T02:21:01.177Z,80.82
2023-02-01T02:26:22.240Z,80.40
2023-02-01T02:31:52.088Z,80.10
2023-02-01T02:37:05.332Z,80.50
2023-02-01T02:42:14.070Z,79.94
2023-02-01T02:47:24.843Z,79.50
2023-02-01T02:52:29.190Z,79.10
2023-02-01T02:57:36.649Z,79.32
2023-02-01T03:02:38.988Z,79.34
2023-02-01T03:07:55.223Z,79.30
2023-02-01T03:13:03.735Z,78.51
2023-02-01T03:18:13.260Z,79.56
2023-02-01T03:23:21.086Z,79.29
2023-02-01T03:28:25.308Z,79.07
2023-02-01T03:33:28.479Z,79.13
2023-02-01T03:38:35.192Z,78.94
2023-02-01T03:43:47.169Z,80.00
2023-02-01T03:48:51.163Z,79.64
2023-02-01T03:53:56.205Z,79.51
2023-02-01T03:58:58.412Z,79.22
2023-02-01T04:04:01.053Z,78.69
2023-02-01T04:09:05.006Z,78.86
2023-02-01T04:14:07.119Z,78.71
2023-02-01T04:19:09.475Z,79.10
2023-02-01T04:24:13.208Z,78.92
2023-02-01T04:29:15.315Z,78.81
2023-02-01T04:34:17.775Z,78.48
2023-02-01T04:39:21.379Z,78.51
2023-02-01T04:44:23.613Z,78.85
2023-02-01T04:49:25.692Z,78.74
2023-02-01T04:54:29.166Z,78.47
2023-02-01T04:59:31.360Z,78.75
2023-02-01T05:04:33.468Z,78.75
2023-02-01T05:09:37.111Z,79.10
2023-02-01T05:14:39.521Z,79.05
2023-02-01T05:19:41.699Z,78.39
2023-02-01T05:24:45.609Z,79.00
2023-02-01T05:29:47.365Z,78.93
2023-02-01T05:34:49.362Z,78.82
2023-02-01T05:39:52.828Z,79.17
2023-02-01T05:44:54.941Z,78.78
2023-02-01T05:49:57.136Z,78.87
2023-02-01T05:55:00.797Z,78.98
2023-02-01T06:00:04.083Z,79.55
2023-02-01T06:05:07.378Z,79.91
2023-02-01T06:10:11.824Z,79.75
2023-02-01T06:15:14.692Z,79.30
2023-02-01T06:20:17.939Z,79.33
2023-02-01T06:25:21.657Z,78.77
2023-02-01T06:30:24.006Z,79.00
2023-02-01T06:35:26.852Z,78.77
2023-02-01T06:40:30.572Z,78.81
2023-02-01T06:45:32.650Z,79.11
2023-02-01T06:50:34.630Z,79.05
2023-02-01T06:55:38.052Z,78.99
2023-02-01T07:00:40.131Z,79.11
2023-02-01T07:05:42.504Z,78.29
2023-02-01T07:10:46.001Z,79.34
2023-02-01T07:15:48.084Z,80.16
2023-02-01T07:20:51.826Z,80.93
2023-02-01T07:25:56.473Z,80.99
2023-02-01T07:31:03.932Z,83.10
2023-02-01T07:36:08.233Z,86.43
2023-02-01T07:41:11.881Z,88.08
2023-02-01T07:46:13.950Z,89.81
2023-02-01T07:51:18.318Z,92.33
2023-02-01T07:56:22.007Z,94.18
2023-02-01T08:01:26.824Z,95.16
2023-02-01T08:06:31.238Z,96.77
2023-02-01T08:11:34.895Z,97.67
2023-02-01T08:16:37.429Z,98.38
2023-02-01T08:21:39.736Z,98.64
2023-02-01T08:26:43.836Z,98.92
2023-02-01T08:31:45.722Z,97.84
2023-02-01T08:36:47.701Z,97.73
2023-02-01T08:41:51.308Z,97.85
2023-02-01T08:46:53.404Z,98.18
2023-02-01T08:51:58.467Z,98.54
2023-02-01T08:57:04.343Z,98.58
2023-02-01T09:02:06.533Z,99.06
2023-02-01T09:07:09.274Z,99.30
2023-02-01T09:12:12.908Z,99.30
2023-02-01T09:17:15.212Z,99.07
2023-02-01T09:22:17.048Z,98.69
2023-02-01T09:27:21.021Z,98.24
2023-02-01T09:32:24.387Z,97.16
2023-02-01T09:37:27.020Z,96.53
2023-02-01T09:42:47.624Z,95.82
2023-02-01T09:47:56.480Z,95.23
2023-02-01T09:53:03.379Z,95.08
2023-02-01T09:58:13.753Z,94.78
2023-02-01T10:03:15.569Z,95.81
2023-02-01T10:08:27.324Z,96.39
2023-02-01T10:13:46.880Z,96.48
2023-02-01T10:19:11.299Z,94.56
2023-02-01T10:24:24.203Z,93.63
2023-02-01T10:29:35.652Z,92.86
2023-02-01T10:34:37.677Z,92.27
2023-02-01T10:39:39.990Z,91.48
2023-02-01T10:44:46.059Z,90.87
2023-02-01T10:49:55.790Z,89.97
2023-02-01T10:55:13.197Z,89.95
2023-02-01T11:00:23.207Z,90.04
2023-02-01T11:05:28.798Z,86.37
2023-02-01T11:10:37.661Z,73.07
2023-02-01T11:15:44.744Z,82.18
2023-02-01T11:20:48.686Z,85.12
2023-02-01T11:25:53.035Z,85.80
2023-02-01T11:31:00.041Z,84.80
2023-02-01T11:36:07.545Z,82.79
2023-02-01T11:41:15.162Z,82.74
2023-02-01T11:46:20.333Z,83.60
2023-02-01T11:51:38.937Z,83.07
2023-02-01T11:56:53.039Z,81.20
2023-02-01T12:02:34.207Z,80.20
2023-02-01T12:07:55.769Z,77.78
2023-02-01T12:13:10.713Z,77.13
2023-02-01T12:18:47.059Z,76.29
2023-02-01T12:24:12.767Z,76.46
2023-02-01T12:29:36.673Z,76.30
2023-02-01T12:35:17.755Z,77.35
2023-02-01T12:40:36.333Z,77.70
2023-02-01T12:45:42.569Z,78.02
2023-02-01T12:50:50.402Z,78.37
2023-02-01T12:55:56.469Z,78.67
2023-02-01T13:01:02.886Z,79.00
2023-02-01T13:06:12.004Z,80.06
2023-02-01T13:11:20.499Z,79.76
2023-02-01T13:16:26.013Z,79.92
2023-02-01T13:21:35.146Z,79.83
2023-02-01T13:26:39.385Z,79.22
2023-02-01T13:33:51.598Z,78.89
2023-02-01T13:38:20.420Z,78.50
2023-02-01T13:43:35.942Z,78.98
2023-02-01T13:48:43.503Z,78.37
2023-02-01T13:53:48.583Z,78.64
2023-02-01T13:58:52.530Z,82.57
2023-02-01T14:03:56.744Z,83.53
2023-02-01T14:09:32.439Z,82.38
2023-02-01T14:14:44.941Z,80.87
2023-02-01T14:19:47.974Z,80.73
2023-02-01T14:24:51.985Z,79.05
2023-02-01T14:29:59.109Z,78.43
2023-02-01T14:35:03.426Z,77.62
2023-02-01T14:40:17.523Z,77.81
2023-02-01T14:45:51.268Z,75.60
2023-02-01T14:51:12.897Z,76.41
2023-02-01T14:56:19.370Z,80.08
2023-02-01T15:01:25.353Z,86.14
2023-02-01T15:06:40.156Z,88.39
2023-02-01T15:11:57.152Z,90.51
2023-02-01T15:17:00.890Z,91.55
2023-02-01T15:22:03.234Z,92.98
2023-02-01T15:27:06.692Z,94.49
2023-02-01T15:32:29.904Z,95.81
2023-02-01T15:37:32.961Z,97.19
2023-02-01T15:42:35.990Z,98.56
2023-02-01T15:47:39.143Z,99.46
2023-02-01T15:52:42.875Z,99.22
2023-02-01T15:57:44.962Z,100.00
2023-02-01T16:02:55.662Z,99.29
2023-02-01T16:08:01.959Z,98.84
2023-02-01T16:13:03.802Z,98.81
2023-02-01T16:18:07.499Z,99.52
2023-02-01T16:23:10.932Z,100.00
2023-02-01T16:28:12.890Z,100.00
2023-02-01T16:33:20.194Z,100.00
2023-02-01T16:38:23.045Z,100.00
2023-02-01T16:43:26.593Z,100.00
2023-02-01T16:48:32.212Z,100.00
2023-02-01T16:59:19.675Z,100.00
2023-02-01T17:04:23.379Z,100.00
2023-02-01T17:09:25.518Z,100.00
2023-02-01T17:14:27.871Z,99.97
2023-02-01T17:19:56.347Z,99.75
2023-02-01T17:24:58.807Z,99.44
2023-02-01T17:30:00.658Z,99.17
2023-02-01T17:35:04.603Z,98.96
2023-02-01T17:40:07.817Z,99.16
2023-02-01T17:45:23.732Z,98.66
2023-02-01T17:50:30.853Z,99.21
2023-02-01T17:55:35.643Z,99.70
2023-02-01T18:00:53.005Z,99.49
2023-02-01T18:05:57.735Z,99.13
2023-02-01T18:11:01.806Z,98.72
2023-02-01T18:16:04.166Z,98.38
2023-02-01T18:21:09.001Z,98.42
2023-02-01T18:26:13.049Z,97.56
2023-02-01T18:31:22.411Z,97.76
2023-02-01T18:36:27.060Z,97.32
2023-02-01T18:41:29.396Z,96.98
2023-02-01T18:46:35.226Z,96.46
2023-02-01T18:51:38.622Z,97.16
2023-02-01T18:56:40.505Z,97.19
2023-02-01T19:01:44.769Z,97.97
2023-02-01T19:06:48.999Z,96.75
2023-02-01T19:11:51.521Z,96.74
2023-02-01T19:16:53.544Z,95.33
2023-02-01T19:21:57.240Z,94.94
2023-02-01T19:26:59.499Z,94.67
2023-02-01T19:32:01.594Z,94.55
2023-02-01T19:37:04.803Z,95.01
2023-02-01T19:42:07.105Z,95.58
2023-02-01T19:47:09.174Z,95.57
2023-02-01T19:52:12.678Z,95.21
2023-02-01T19:57:17.668Z,94.61
2023-02-01T20:02:18.830Z,94.54
2023-02-01T20:07:23.056Z,93.93
2023-02-01T20:12:25.223Z,93.67
2023-02-01T20:17:29.774Z,93.44
2023-02-01T20:22:33.292Z,92.79
2023-02-01T20:27:36.171Z,93.47
2023-02-01T20:32:47.425Z,92.63
2023-02-01T20:37:55.597Z,92.37
2023-02-01T20:42:58.736Z,92.05
2023-02-01T20:48:02.924Z,91.96
2023-02-01T20:53:06.585Z,92.52
2023-02-01T20:58:08.414Z,92.39
2023-02-01T21:03:10.649Z,92.75
2023-02-01T21:08:14.360Z,93.16
2023-02-01T21:13:16.702Z,92.15
2023-02-01T21:18:18.875Z,92.01
2023-02-01T21:23:22.555Z,92.03
2023-02-01T21:28:25.085Z,91.71
2023-02-01T21:33:27.484Z,91.76
2023-02-01T21:38:31.235Z,91.33
2023-02-01T21:43:33.600Z,90.37
2023-02-01T21:49:03.682Z,90.32
2023-02-01T21:54:00.200Z,89.54
2023-02-01T21:59:02.504Z,89.79
2023-02-01T22:04:05.095Z,89.42
2023-02-01T22:09:15.901Z,89.36
2023-02-01T22:14:18.569Z,89.64
2023-02-01T22:19:20.828Z,89.93
2023-02-01T22:24:24.461Z,89.81
2023-02-01T22:29:26.613Z,88.98
2023-02-01T22:34:28.666Z,88.93
2023-02-01T22:39:32.225Z,88.95
2023-02-01T22:44:34.012Z,88.46
2023-02-01T22:49:36.228Z,88.83
2023-02-01T22:54:39.967Z,88.95
2023-02-01T22:59:42.098Z,88.52
2023-02-01T23:04:44.301Z,88.92
2023-02-01T23:09:47.380Z,89.30
2023-02-01T23:14:49.671Z,88.64
2023-02-01T23:19:57.961Z,88.60
2023-02-01T23:25:01.709Z,88.66
2023-02-01T23:30:04.345Z,88.47
2023-02-01T23:35:07.301Z,88.28
2023-02-01T23:40:12.466Z,88.49
2023-02-01T23:45:14.259Z,88.16
2023-02-01T23:50:16.936Z,87.48
2023-02-01T23:55:20.373Z,86.13
